createdAt,value
2023-04-16T00:01:44.249Z,85.00
2023-04-16T00:04:11.682Z,85.00
2023-04-16T00:06:39.106Z,85.90
2023-04-16T00:09:06.523Z,85.90
2023-04-16T00:11:33.920Z,85.30
2023-04-16T00:14:01.299Z,85.30
2023-04-16T00:16:28.821Z,85.40
2023-04-16T00:18:56.172Z,85.60
2023-04-16T00:21:23.491Z,85.80
2023-04-16T00:23:50.904Z,85.80
2023-04-16T00:26:18.230Z,85.80
2023-04-16T00:28:46.517Z,86.10
2023-04-16T00:31:13.951Z,86.10
2023-04-16T00:33:41.374Z,86.40
2023-04-16T00:36:09.791Z,86.10
2023-04-16T00:38:37.442Z,86.90
2023-04-16T00:41:04.828Z,86.50
2023-04-16T00:43:32.178Z,86.30
2023-04-16T00:45:59.673Z,86.30
2023-04-16T00:48:28.159Z,86.50
2023-04-16T00:50:55.864Z,87.00
2023-04-16T00:53:24.315Z,86.70
2023-04-16T00:55:52.119Z,87.10
2023-04-16T00:58:20.040Z,87.20
2023-04-16T01:00:48.347Z,87.40
2023-04-16T01:03:16.967Z,86.60
2023-04-16T01:05:45.996Z,86.50
2023-04-16T01:08:21.572Z,86.90
2023-04-16T01:10:48.910Z,88.60
2023-04-16T01:13:16.345Z,87.20
2023-04-16T01:15:43.649Z,87.30
2023-04-16T01:18:18.361Z,87.00
2023-04-16T01:20:46.203Z,88.90
2023-04-16T01:23:14.347Z,89.60
2023-04-16T01:25:41.937Z,87.20
2023-04-16T01:28:09.280Z,87.50
2023-04-16T01:30:36.899Z,87.00
2023-04-16T01:33:13.580Z,87.50
2023-04-16T01:35:41.678Z,87.10
2023-04-16T01:38:10.282Z,87.00
2023-04-16T01:40:38.168Z,87.70
2023-04-16T01:43:05.741Z,87.30
2023-04-16T01:45:34.110Z,87.80
2023-04-16T01:48:02.126Z,87.90
2023-04-16T01:50:30.816Z,87.10
2023-04-16T01:52:58.232Z,87.90
2023-04-16T01:55:25.672Z,87.40
2023-04-16T01:57:53.084Z,87.40
2023-04-16T02:00:21.855Z,87.60
2023-04-16T02:02:49.495Z,87.60
2023-04-16T02:05:24.725Z,87.60
2023-04-16T02:07:52.020Z,88.10
2023-04-16T02:10:19.380Z,87.80
2023-04-16T02:12:49.905Z,87.70
2023-04-16T02:15:17.602Z,87.50
2023-04-16T02:17:46.797Z,88.10
2023-04-16T02:20:14.294Z,87.90
2023-04-16T02:22:55.030Z,87.80
2023-04-16T02:25:24.470Z,87.90
2023-04-16T02:27:55.159Z,87.80
2023-04-16T02:30:36.623Z,87.40
2023-04-16T02:33:07.232Z,88.30
2023-04-16T02:35:36.093Z,88.20
2023-04-16T02:38:04.606Z,88.30
2023-04-16T02:40:32.845Z,88.20
2023-04-16T02:43:00.742Z,88.60
2023-04-16T02:45:28.273Z,87.70
2023-04-16T02:47:55.644Z,88.10
2023-04-16T02:50:23.010Z,87.90
2023-04-16T02:52:51.548Z,88.00
2023-04-16T02:55:19.037Z,88.40
2023-04-16T02:57:46.360Z,88.60
2023-04-16T03:00:13.948Z,88.00
2023-04-16T03:02:42.528Z,88.20
2023-04-16T03:05:11.735Z,89.10
2023-04-16T03:07:40.705Z,88.80
2023-04-16T03:10:09.122Z,88.30
2023-04-16T03:12:36.546Z,89.10
2023-04-16T03:15:07.786Z,88.50
2023-04-16T03:17:35.183Z,88.80
2023-04-16T03:20:02.634Z,89.40
2023-04-16T03:22:30.519Z,88.80
2023-04-16T03:24:57.897Z,88.90
2023-04-16T03:27:25.360Z,89.20
2023-04-16T03:29:53.322Z,89.00
2023-04-16T03:32:20.848Z,89.00
2023-04-16T03:34:48.179Z,89.20
2023-04-16T03:37:15.529Z,89.50
2023-04-16T03:39:43.037Z,89.70
2023-04-16T03:42:11.879Z,89.60
2023-04-16T03:44:39.253Z,89.70
2023-04-16T03:47:06.695Z,89.80
2023-04-16T03:49:34.001Z,89.70
2023-04-16T03:52:01.605Z,89.70
2023-04-16T03:54:29.019Z,89.70
2023-04-16T03:57:07.407Z,90.00
2023-04-16T03:59:34.801Z,89.90
2023-04-16T04:02:02.181Z,90.00
2023-04-16T04:04:29.755Z,90.10
2023-04-16T04:06:58.408Z,89.90
2023-04-16T04:09:27.466Z,90.20
2023-04-16T04:11:54.940Z,90.50
2023-04-16T04:14:22.368Z,90.00
2023-04-16T04:16:49.796Z,90.40
2023-04-16T04:19:17.169Z,90.10
2023-04-16T04:21:44.670Z,90.30
2023-04-16T04:24:12.068Z,90.20
2023-04-16T04:26:39.466Z,90.40
2023-04-16T04:29:06.826Z,90.10
2023-04-16T04:31:35.489Z,90.30
2023-04-16T04:34:03.193Z,90.20
2023-04-16T04:36:30.990Z,90.20
2023-04-16T04:38:58.345Z,90.20
2023-04-16T04:41:26.961Z,90.50
2023-04-16T04:43:54.331Z,90.30
2023-04-16T04:46:21.907Z,90.40
2023-04-16T04:48:50.541Z,90.40
2023-04-16T04:51:18.006Z,90.30
2023-04-16T04:53:47.144Z,90.70
2023-04-16T04:56:14.547Z,90.70
2023-04-16T04:58:42.198Z,90.30
2023-04-16T05:01:09.776Z,90.50
2023-04-16T05:03:37.280Z,90.50
2023-04-16T05:06:04.826Z,90.60
2023-04-16T05:08:32.138Z,90.60
2023-04-16T05:11:00.430Z,90.70
2023-04-16T05:13:27.808Z,90.60
2023-04-16T05:15:55.290Z,90.60
2023-04-16T05:18:22.629Z,90.80
2023-04-16T05:20:49.964Z,90.80
2023-04-16T05:23:17.317Z,91.20
2023-04-16T05:25:44.704Z,90.60
2023-04-16T05:28:12.007Z,90.90
2023-04-16T05:30:39.341Z,90.80
2023-04-16T05:33:06.672Z,91.00
2023-04-16T05:35:35.065Z,90.70
2023-04-16T05:38:02.514Z,90.60
2023-04-16T05:40:30.041Z,90.70
2023-04-16T05:42:57.449Z,90.80
2023-04-16T05:45:26.701Z,90.70
2023-04-16T05:47:55.377Z,91.30
2023-04-16T05:50:22.733Z,90.90
2023-04-16T05:52:50.098Z,90.80
2023-04-16T05:55:17.482Z,90.80
2023-04-16T05:57:44.768Z,90.70
2023-04-16T06:00:12.408Z,90.90
2023-04-16T06:02:39.916Z,90.90
2023-04-16T06:05:07.730Z,90.90
2023-04-16T06:07:35.145Z,91.00
2023-04-16T06:10:02.515Z,90.90
2023-04-16T06:12:29.923Z,91.00
2023-04-16T06:14:57.273Z,90.80
2023-04-16T06:17:24.701Z,90.90
2023-04-16T06:19:52.084Z,91.60
2023-04-16T06:22:19.465Z,90.90
2023-04-16T06:24:46.845Z,90.90
2023-04-16T06:27:14.246Z,91.10
2023-04-16T06:29:42.021Z,91.00
2023-04-16T06:32:09.619Z,91.20
2023-04-16T06:34:38.553Z,91.00
2023-04-16T06:37:06.741Z,91.40
2023-04-16T06:39:35.818Z,91.00
2023-04-16T06:42:03.856Z,90.90
2023-04-16T06:44:31.307Z,90.90
2023-04-16T06:46:58.788Z,91.30
2023-04-16T06:49:26.155Z,91.20
2023-04-16T06:51:53.581Z,90.90
2023-04-16T06:54:20.929Z,91.40
2023-04-16T06:56:48.282Z,91.00
2023-04-16T06:59:15.964Z,91.20
2023-04-16T07:01:43.431Z,91.00
2023-04-16T07:04:11.909Z,90.90
2023-04-16T07:06:39.353Z,90.90
2023-04-16T07:09:06.695Z,91.20
2023-04-16T07:11:34.436Z,90.90
2023-04-16T07:14:02.129Z,91.30
2023-04-16T07:16:29.656Z,91.00
2023-04-16T07:18:57.004Z,91.00
2023-04-16T07:21:24.365Z,90.90
2023-04-16T07:23:51.685Z,91.00
2023-04-16T07:26:19.058Z,90.90
2023-04-16T07:28:46.480Z,91.10
2023-04-16T07:31:13.851Z,91.10
2023-04-16T07:33:41.213Z,91.20
2023-04-16T07:36:08.663Z,91.00
2023-04-16T07:38:36.162Z,91.30
2023-04-16T07:41:03.672Z,90.90
2023-04-16T07:43:31.080Z,91.10
2023-04-16T07:45:58.453Z,91.00
2023-04-16T07:48:26.064Z,91.00
2023-04-16T07:50:53.483Z,90.90
2023-04-16T07:53:20.878Z,91.10
2023-04-16T07:55:48.219Z,90.80
2023-04-16T07:58:15.530Z,91.00
2023-04-16T08:00:43.353Z,91.20
2023-04-16T08:03:10.989Z,91.40
2023-04-16T08:05:38.595Z,90.90
2023-04-16T08:08:06.093Z,90.50
2023-04-16T08:10:33.927Z,90.90
2023-04-16T08:13:02.125Z,91.00
2023-04-16T08:15:29.797Z,91.50
2023-04-16T08:17:57.206Z,90.90
2023-04-16T08:20:24.740Z,91.00
2023-04-16T08:22:54.200Z,90.90
2023-04-16T08:25:23.635Z,91.50
2023-04-16T08:27:51.122Z,90.90
2023-04-16T08:30:18.624Z,91.00
2023-04-16T08:32:48.698Z,90.90
2023-04-16T08:35:17.469Z,90.90
2023-04-16T08:37:44.885Z,90.90
2023-04-16T08:40:12.479Z,90.90
2023-04-16T08:42:44.960Z,91.00
2023-04-16T08:45:18.353Z,91.30
2023-04-16T08:47:50.553Z,91.70
2023-04-16T08:50:25.465Z,91.70
2023-04-16T08:53:03.912Z,90.90
2023-04-16T08:55:38.470Z,91.20
2023-04-16T08:58:23.228Z,91.50
2023-04-16T09:00:51.028Z,91.60
2023-04-16T09:03:21.621Z,90.80
2023-04-16T09:05:50.532Z,90.80
2023-04-16T09:08:18.252Z,90.90
2023-04-16T09:10:46.451Z,90.80
2023-04-16T09:13:16.464Z,91.10
2023-04-16T09:15:44.426Z,90.90
2023-04-16T09:18:12.280Z,91.10
2023-04-16T09:20:39.858Z,90.80
2023-04-16T09:23:07.281Z,90.90
2023-04-16T09:25:35.258Z,90.80
2023-04-16T09:28:02.874Z,90.80
2023-04-16T09:30:30.342Z,90.60
2023-04-16T09:33:13.067Z,90.60
2023-04-16T09:35:51.272Z,91.90
2023-04-16T09:38:19.795Z,90.90
2023-04-16T09:40:47.587Z,90.70
2023-04-16T09:43:17.172Z,90.40
2023-04-16T09:45:55.227Z,90.80
2023-04-16T09:48:32.936Z,91.30
2023-04-16T09:51:03.541Z,91.40
2023-04-16T09:53:32.169Z,90.70
2023-04-16T09:56:01.415Z,90.90
2023-04-16T09:58:29.672Z,90.60
2023-04-16T10:01:02.406Z,90.50
2023-04-16T10:03:38.003Z,91.30
2023-04-16T10:06:20.648Z,91.30
2023-04-16T10:08:52.665Z,91.30
2023-04-16T10:11:21.283Z,90.80
2023-04-16T10:13:49.194Z,90.50
2023-04-16T10:16:17.960Z,90.60
2023-04-16T10:18:47.350Z,90.30
2023-04-16T10:21:16.342Z,91.00
2023-04-16T10:23:44.466Z,90.30
2023-04-16T10:26:12.023Z,90.50
2023-04-16T10:28:40.801Z,90.40
2023-04-16T10:31:09.427Z,90.30
2023-04-16T10:33:40.678Z,90.80
2023-04-16T10:36:16.271Z,91.00
2023-04-16T10:38:49.356Z,90.80
2023-04-16T10:41:17.092Z,90.80
2023-04-16T10:43:46.496Z,90.20
2023-04-16T10:46:27.196Z,90.30
2023-04-16T10:48:56.086Z,90.30
2023-04-16T10:51:31.352Z,90.00
2023-04-16T10:54:19.484Z,90.80
2023-04-16T10:56:47.726Z,90.80
2023-04-16T10:59:19.013Z,90.50
2023-04-16T11:01:48.649Z,90.50
2023-04-16T11:04:25.395Z,90.50
2023-04-16T11:07:11.111Z,90.40
2023-04-16T11:10:05.363Z,90.60
2023-04-16T11:12:37.908Z,90.50
2023-04-16T11:15:11.050Z,89.30
2023-04-16T11:17:46.960Z,90.50
2023-04-16T11:20:23.553Z,90.60
2023-04-16T11:22:52.877Z,90.50
2023-04-16T11:25:30.128Z,90.20
2023-04-16T11:27:59.232Z,90.60
2023-04-16T11:30:33.903Z,90.20
2023-04-16T11:33:05.823Z,90.60
2023-04-16T11:35:33.457Z,90.60
2023-04-16T11:38:00.985Z,89.80
2023-04-16T11:40:31.879Z,89.60
2023-04-16T11:43:04.238Z,90.30
2023-04-16T11:45:31.784Z,90.30
2023-04-16T11:47:59.192Z,89.10
2023-04-16T11:50:28.389Z,89.20
2023-04-16T11:53:03.036Z,89.60
2023-04-16T11:55:30.331Z,89.90
2023-04-16T11:57:57.663Z,90.50
2023-04-16T12:00:25.156Z,88.90
2023-04-16T12:02:55.145Z,89.40
2023-04-16T12:05:37.335Z,89.40
2023-04-16T12:08:06.952Z,90.30
2023-04-16T12:10:36.573Z,89.60
2023-04-16T12:13:15.254Z,89.50
2023-04-16T12:15:50.576Z,89.70
2023-04-16T12:18:20.209Z,89.40
2023-04-16T12:20:47.864Z,89.10
2023-04-16T12:23:33.323Z,88.90
2023-04-16T12:26:10.798Z,90.20
2023-04-16T12:28:39.304Z,90.00
2023-04-16T12:31:08.113Z,88.00
2023-04-16T12:33:35.615Z,88.30
2023-04-16T12:36:20.243Z,87.90
2023-04-16T12:38:47.614Z,88.20
2023-04-16T12:41:14.957Z,87.50
2023-04-16T12:43:42.384Z,86.70
2023-04-16T12:46:09.767Z,86.80
2023-04-16T12:48:37.924Z,86.60
2023-04-16T12:51:05.418Z,86.20
2023-04-16T12:53:32.741Z,86.80
2023-04-16T12:56:00.577Z,87.00
2023-04-16T12:58:27.942Z,86.70
2023-04-16T13:00:55.337Z,86.90
2023-04-16T13:03:22.971Z,87.70
2023-04-16T13:05:50.583Z,86.30
2023-04-16T13:08:17.996Z,86.70
2023-04-16T13:10:45.382Z,86.70
2023-04-16T13:13:12.740Z,86.50
2023-04-16T13:15:40.126Z,86.60
2023-04-16T13:18:07.502Z,86.50
2023-04-16T13:20:34.947Z,86.80
2023-04-16T13:23:04.920Z,86.90
2023-04-16T13:25:32.390Z,86.30
2023-04-16T13:27:59.734Z,86.40
2023-04-16T13:30:29.356Z,85.90
2023-04-16T13:32:57.044Z,85.40
2023-04-16T13:35:24.447Z,85.70
2023-04-16T13:37:51.799Z,85.70
2023-04-16T13:40:20.403Z,85.80
2023-04-16T13:42:47.758Z,85.30
2023-04-16T13:45:15.215Z,85.60
2023-04-16T13:47:43.451Z,85.20
2023-04-16T13:50:11.176Z,85.10
2023-04-16T13:52:38.562Z,85.00
2023-04-16T13:55:06.357Z,84.90
2023-04-16T13:57:33.697Z,84.20
2023-04-16T14:00:01.819Z,84.40
2023-04-16T14:02:32.187Z,84.10
2023-04-16T14:04:59.648Z,84.40
2023-04-16T14:07:27.629Z,84.50
2023-04-16T14:09:55.021Z,84.40
2023-04-16T14:12:22.467Z,84.20
2023-04-16T14:14:49.929Z,84.20
2023-04-16T14:17:17.374Z,84.40
2023-04-16T14:19:44.755Z,84.60
2023-04-16T14:22:12.151Z,84.30
2023-04-16T14:24:39.536Z,84.40
2023-04-16T14:27:06.933Z,84.20
2023-04-16T14:29:34.466Z,84.50
2023-04-16T14:32:02.084Z,84.30
2023-04-16T14:34:29.524Z,84.20
2023-04-16T14:36:56.930Z,84.20
2023-04-16T14:39:24.951Z,84.20
2023-04-16T14:41:52.348Z,84.40
2023-04-16T14:44:19.719Z,84.30
2023-04-16T14:46:47.144Z,84.40
2023-04-16T14:49:14.876Z,84.20
2023-04-16T14:51:42.818Z,84.40
2023-04-16T14:54:10.275Z,84.70
2023-04-16T14:56:38.008Z,85.70
2023-04-16T14:59:05.433Z,85.10
2023-04-16T15:01:34.584Z,85.00
2023-04-16T15:04:03.068Z,85.30
2023-04-16T15:06:32.290Z,84.70
2023-04-16T15:08:59.922Z,85.10
2023-04-16T15:11:28.482Z,85.00
2023-04-16T15:13:56.140Z,85.10
2023-04-16T15:16:23.803Z,85.00
2023-04-16T15:18:51.440Z,85.00
2023-04-16T15:21:18.949Z,84.80
2023-04-16T15:23:46.304Z,84.90
2023-04-16T15:26:13.756Z,84.80
2023-04-16T15:28:41.342Z,85.10
2023-04-16T15:31:08.922Z,85.10
2023-04-16T15:33:36.333Z,85.30
2023-04-16T15:36:04.022Z,85.50
2023-04-16T15:38:31.373Z,85.30
2023-04-16T15:41:00.460Z,85.40
2023-04-16T15:43:31.177Z,85.30
2023-04-16T15:45:58.655Z,85.20
2023-04-16T15:48:26.112Z,85.80
2023-04-16T15:50:54.536Z,85.80
2023-04-16T15:53:22.373Z,86.40
2023-04-16T15:55:52.699Z,86.10
2023-04-16T15:58:21.008Z,86.80
2023-04-16T16:00:50.181Z,86.10
2023-04-16T16:03:18.554Z,86.20
2023-04-16T16:05:47.918Z,86.00
2023-04-16T16:08:16.033Z,85.90
2023-04-16T16:10:43.635Z,86.90
2023-04-16T16:13:14.101Z,88.00
2023-04-16T16:15:41.967Z,85.70
2023-04-16T16:18:09.414Z,85.60
2023-04-16T16:20:37.128Z,87.30
2023-04-16T16:23:04.652Z,86.10
2023-04-16T16:25:32.186Z,86.40
2023-04-16T16:28:01.850Z,86.50
2023-04-16T16:30:30.015Z,86.40
2023-04-16T16:32:57.900Z,86.50
2023-04-16T16:35:26.230Z,86.00
2023-04-16T16:37:57.290Z,86.20
2023-04-16T16:40:25.066Z,85.80
2023-04-16T16:42:52.762Z,85.60
2023-04-16T16:45:20.112Z,85.90
2023-04-16T16:47:48.804Z,85.90
2023-04-16T16:50:16.303Z,85.70
2023-04-16T16:52:44.568Z,85.60
2023-04-16T16:55:11.999Z,86.10
2023-04-16T16:57:39.476Z,85.70
2023-04-16T17:00:11.510Z,85.80
2023-04-16T17:02:39.022Z,85.70
2023-04-16T17:05:07.596Z,86.00
2023-04-16T17:07:35.034Z,86.20
2023-04-16T17:10:05.215Z,86.30
2023-04-16T17:12:34.071Z,86.00
2023-04-16T17:15:01.587Z,86.00
2023-04-16T17:17:29.231Z,86.20
2023-04-16T17:19:56.677Z,85.80
2023-04-16T17:22:24.124Z,86.10
2023-04-16T17:24:51.533Z,86.40
2023-04-16T17:27:18.962Z,86.10
2023-04-16T17:29:46.394Z,86.50
2023-04-16T17:32:13.894Z,87.00
2023-04-16T17:34:41.457Z,87.40
2023-04-16T17:37:08.861Z,87.20
2023-04-16T17:39:36.404Z,87.10
2023-04-16T17:42:03.989Z,86.70
2023-04-16T17:44:31.299Z,86.80
2023-04-16T17:46:58.922Z,86.70
2023-04-16T17:49:27.106Z,88.10
2023-04-16T17:51:54.669Z,89.40
2023-04-16T17:54:22.516Z,88.80
2023-04-16T17:56:50.036Z,90.00
2023-04-16T17:59:17.490Z,87.90
2023-04-16T18:01:45.326Z,87.40
2023-04-16T18:04:13.331Z,87.70
2023-04-16T18:06:41.019Z,87.30
2023-04-16T18:09:08.409Z,87.50
2023-04-16T18:11:36.010Z,87.40
2023-04-16T18:14:03.338Z,87.70
2023-04-16T18:16:30.896Z,87.60
2023-04-16T18:18:58.425Z,87.80
2023-04-16T18:21:26.106Z,88.70
2023-04-16T18:23:53.520Z,87.40
2023-04-16T18:26:22.641Z,87.60
2023-04-16T18:28:50.686Z,88.80
2023-04-16T18:31:20.922Z,88.30
2023-04-16T18:33:55.725Z,87.90
2023-04-16T18:36:24.969Z,88.90
2023-04-16T18:39:00.177Z,88.70
2023-04-16T18:41:29.047Z,88.00
2023-04-16T18:43:57.670Z,87.90
2023-04-16T18:46:25.470Z,89.70
2023-04-16T18:48:52.961Z,89.00
2023-04-16T18:51:20.366Z,88.40
2023-04-16T18:53:47.699Z,88.60
2023-04-16T18:56:15.425Z,88.50
2023-04-16T18:58:43.309Z,88.30
2023-04-16T19:01:13.091Z,88.40
2023-04-16T19:03:40.685Z,88.40
2023-04-16T19:06:08.328Z,88.40
2023-04-16T19:08:35.927Z,89.10
2023-04-16T19:11:03.271Z,88.90
2023-04-16T19:13:32.188Z,90.00
2023-04-16T19:16:00.566Z,88.80
2023-04-16T19:18:28.089Z,88.70
2023-04-16T19:20:59.945Z,89.00
2023-04-16T19:23:27.843Z,90.20
2023-04-16T19:25:58.298Z,89.00
2023-04-16T19:28:25.831Z,88.90
2023-04-16T19:30:54.056Z,89.60
2023-04-16T19:33:21.516Z,89.60
2023-04-16T19:35:48.889Z,89.30
2023-04-16T19:38:16.455Z,89.60
2023-04-16T19:40:45.740Z,89.50
2023-04-16T19:43:13.158Z,89.90
2023-04-16T19:45:48.085Z,89.70
2023-04-16T19:48:15.555Z,90.70
2023-04-16T19:50:43.066Z,89.90
2023-04-16T19:53:11.231Z,90.00
2023-04-16T19:55:42.114Z,90.00
2023-04-16T19:58:09.895Z,90.80
2023-04-16T20:00:38.610Z,90.30
2023-04-16T20:03:06.287Z,90.20
2023-04-16T20:05:33.907Z,90.00
2023-04-16T20:08:01.333Z,89.90
2023-04-16T20:10:29.381Z,90.00
2023-04-16T20:12:56.750Z,89.20
2023-04-16T20:15:24.177Z,90.00
2023-04-16T20:17:52.295Z,90.10
2023-04-16T20:20:19.938Z,90.00
2023-04-16T20:22:47.405Z,90.20
2023-04-16T20:25:18.821Z,90.20
2023-04-16T20:27:46.277Z,90.30
2023-04-16T20:30:14.164Z,90.20
2023-04-16T20:32:41.582Z,90.20
2023-04-16T20:35:11.383Z,90.10
2023-04-16T20:37:39.735Z,90.10
2023-04-16T20:40:08.964Z,90.40
2023-04-16T20:42:36.452Z,90.10
2023-04-16T20:45:04.827Z,90.40
2023-04-16T20:47:34.674Z,90.30
2023-04-16T20:50:02.969Z,90.20
2023-04-16T20:52:30.739Z,90.40
2023-04-16T20:54:58.284Z,90.20
2023-04-16T20:57:28.131Z,90.20
2023-04-16T20:59:56.439Z,90.00
2023-04-16T21:02:24.247Z,90.50
2023-04-16T21:04:51.982Z,90.30
2023-04-16T21:07:19.513Z,90.40
2023-04-16T21:09:46.862Z,90.50
2023-04-16T21:12:14.188Z,90.50
2023-04-16T21:14:41.508Z,90.40
2023-04-16T21:17:08.894Z,90.50
2023-04-16T21:19:36.261Z,90.40
2023-04-16T21:22:03.909Z,90.40
2023-04-16T21:24:32.154Z,90.40
2023-04-16T21:26:59.516Z,90.80
2023-04-16T21:29:26.986Z,90.50
2023-04-16T21:31:54.969Z,90.50
2023-04-16T21:34:22.431Z,90.50
2023-04-16T21:36:49.843Z,90.60
2023-04-16T21:39:19.671Z,90.40
2023-04-16T21:41:47.125Z,90.50
2023-04-16T21:44:15.369Z,91.00
2023-04-16T21:46:42.830Z,90.90
2023-04-16T21:49:10.507Z,90.70
2023-04-16T21:51:40.025Z,90.60
2023-04-16T21:54:07.851Z,90.70
2023-04-16T21:56:35.214Z,90.60
2023-04-16T21:59:02.645Z,90.90
2023-04-16T22:01:30.079Z,90.80
2023-04-16T22:03:57.734Z,90.50
2023-04-16T22:06:26.136Z,90.80
2023-04-16T22:08:53.592Z,90.80
2023-04-16T22:11:21.318Z,91.20
2023-04-16T22:13:49.470Z,90.90
2023-04-16T22:16:17.012Z,90.80
2023-04-16T22:18:45.143Z,90.90
2023-04-16T22:21:12.493Z,90.80
2023-04-16T22:23:39.853Z,91.10
2023-04-16T22:26:07.307Z,91.20
2023-04-16T22:28:35.039Z,90.90
2023-04-16T22:31:02.405Z,91.10
2023-04-16T22:33:30.648Z,90.90
2023-04-16T22:35:59.980Z,91.00
2023-04-16T22:38:27.355Z,91.50
2023-04-16T22:40:54.683Z,91.00
2023-04-16T22:43:22.078Z,90.90
2023-04-16T22:45:49.391Z,91.00
2023-04-16T22:48:17.227Z,91.00
2023-04-16T22:50:48.658Z,90.90
2023-04-16T22:53:16.246Z,92.20
2023-04-16T22:55:43.631Z,91.20
2023-04-16T22:58:10.994Z,91.00
2023-04-16T23:00:38.336Z,91.20
2023-04-16T23:03:06.028Z,91.00
2023-04-16T23:05:34.547Z,91.00
2023-04-16T23:08:01.955Z,91.00
2023-04-16T23:10:29.351Z,91.40
2023-04-16T23:12:56.722Z,91.10
2023-04-16T23:15:24.168Z,91.30
2023-04-16T23:17:51.736Z,91.20
2023-04-16T23:20:19.226Z,91.10
2023-04-16T23:22:47.053Z,91.50
2023-04-16T23:25:14.596Z,91.70
2023-04-16T23:27:42.052Z,91.30
2023-04-16T23:30:09.769Z,91.20
2023-04-16T23:32:37.189Z,91.40
2023-04-16T23:35:04.946Z,91.30
2023-04-16T23:37:32.393Z,91.20
2023-04-16T23:39:59.738Z,91.30
2023-04-16T23:42:27.106Z,91.40
2023-04-16T23:44:54.467Z,91.20
2023-04-16T23:47:23.208Z,91.40
2023-04-16T23:49:50.674Z,91.50
2023-04-16T23:52:18.030Z,91.30
2023-04-16T23:54:45.423Z,91.60
2023-04-16T23:57:12.738Z,91.40
2023-04-16T23:59:40.063Z,91.70
